Weather reports worldwide

Advertisment
Wick Airport, United Kingdom (2003075): temperature & dewpoint: 05.12.2019 09:00:00 - 11.12.2019 09:00:00 (GMT)Wick Airport, United Kingdom (2003075): wind speed: 05.12.2019 09:00:00 - 11.12.2019 09:00:00 (GMT)Wick Airport, United Kingdom (2003075): wind direction: 05.12.2019 09:00:00 - 11.12.2019 09:00:00 (GMT)Wick Airport, United Kingdom (2003075): visibility: 05.12.2019 09:00:00 - 11.12.2019 09:00:00 (GMT)
Date & Time tt [°C] td [°C] ff [km/h] ff [kn] dd vv [km]
11.12.2019 09:00:00 4,0 2,0 34 18 SW 10
11.12.2019 08:00:00 4,0 2,0 29 16 SSW 10
11.12.2019 07:00:00 3,0 1,0 28 15 SSW 10
11.12.2019 06:00:00 3,0 1,0 37 20 SW 10
11.12.2019 05:00:00 3,0 0,0 29 16 SW 10
11.12.2019 04:00:00 4,0 -1,0 21 11 SW 10
11.12.2019 03:00:00 4,0 0,0 28 15 SW 10
11.12.2019 02:00:00 3,0 1,0 26 14 WSW 10
11.12.2019 01:00:00 4,0 1,0 29 16 WSW 10
11.12.2019 00:00:00 4,0 1,0 29 16 WSW 10
10.12.2019 23:00:00 4,0 1,0 28 15 SW 10
10.12.2019 22:00:00 5,0 2,0 35 19 WSW 10
10.12.2019 21:00:00 5,0 1,0 31 17 WSW 10
10.12.2019 20:00:00 5,0 1,0 35 19 W 10
10.12.2019 19:00:00 6,0 2,0 29 16 W 10
10.12.2019 18:00:00 6,0 2,0 34 18 WSW 10
10.12.2019 17:00:00 7,0 3,0 34 18 W 10
10.12.2019 16:00:00 7,0 4,0 28 15 W 10
10.12.2019 15:00:00 9,0 7,0 42 23 W 10
10.12.2019 14:00:00 11,0 8,0 28 15 S 10
10.12.2019 13:00:00 10,0 8,0 31 17 S 10
10.12.2019 12:00:00 10,0 7,0 29 16 S 10
10.12.2019 11:00:00 9,0 6,0 39 21 S 10
10.12.2019 10:00:00 8,0 6,0 39 21 S 10
10.12.2019 09:00:00 8,0 6,0 42 23 S 10
10.12.2019 08:00:00 9,0 5,0 41 22 S 10
10.12.2019 07:00:00 8,0 4,0 50 27 S 10
10.12.2019 06:00:00 8,0 4,0 44 24 S 10
10.12.2019 05:00:00 8,0 4,0 46 25 S 10
10.12.2019 04:00:00 7,0 4,0 34 18 S 10
10.12.2019 03:00:00 7,0 4,0 29 16 S 10
10.12.2019 02:00:00 7,0 4,0 28 15 S 10
10.12.2019 01:00:00 6,0 3,0 31 17 S 10
10.12.2019 00:00:00 6,0 2,0 35 19 S 10
09.12.2019 23:00:00 6,0 2,0 24 13 S 10
09.12.2019 22:00:00 6,0 1,0 24 13 S 10
09.12.2019 21:00:00 - - - - - -
09.12.2019 20:00:00 3,0 -2,0 11 6 SSW 10
09.12.2019 19:00:00 2,0 -3,0 5 3 SW 10
09.12.2019 18:00:00 1,0 -2,0 5 3 SW 10
09.12.2019 17:00:00 2,0 -1,0 8 4 WSW 10
09.12.2019 16:00:00 3,0 -3,0 5 3 - 10
09.12.2019 15:00:00 3,0 -2,0 9 5 NW 10
09.12.2019 14:00:00 4,0 -1,0 15 8 NW 10
09.12.2019 13:00:00 4,0 -3,0 28 15 NNW 10
09.12.2019 12:00:00 5,0 -3,0 37 20 N 10
09.12.2019 11:00:00 4,0 -1,0 28 15 NNW 10
09.12.2019 10:00:00 4,0 0,0 31 17 N 10
09.12.2019 09:00:00 3,0 0,0 29 16 NNW 10
09.12.2019 08:00:00 4,0 1,0 39 21 N 10
09.12.2019 07:00:00 4,0 -1,0 35 19 NNW 10
09.12.2019 06:00:00 - - - - - -
09.12.2019 05:00:00 - - - - - -
09.12.2019 04:00:00 - - - - - -
09.12.2019 03:00:00 - - - - - -
09.12.2019 02:00:00 - - - - - -
09.12.2019 01:00:00 - - - - - -
09.12.2019 00:00:00 - - - - - -
08.12.2019 23:00:00 - - - - - -
08.12.2019 22:00:00 - - - - - -
08.12.2019 21:00:00 - - - - - -
08.12.2019 20:00:00 - - - - - -
08.12.2019 19:00:00 - - - - - -
08.12.2019 18:00:00 - - - - - -
08.12.2019 17:00:00 4,0 2,0 18 10 WSW 10
08.12.2019 16:00:00 5,0 2,0 22 12 WSW 10
08.12.2019 15:00:00 5,0 2,0 24 13 SW 10
08.12.2019 14:00:00 6,0 3,0 28 15 SW 10
08.12.2019 13:00:00 6,0 3,0 24 13 SW 10
08.12.2019 12:00:00 5,0 3,0 29 16 WSW 7
08.12.2019 11:00:00 5,0 2,0 21 11 SW 10
08.12.2019 10:00:00 5,0 2,0 37 20 WSW 10
08.12.2019 09:00:00 5,0 3,0 37 20 WSW 10
08.12.2019 08:00:00 5,0 2,0 35 19 WSW 10
08.12.2019 07:00:00 5,0 2,0 34 18 WSW 10
08.12.2019 06:00:00 6,0 2,0 37 20 W 10
08.12.2019 05:00:00 7,0 3,0 37 20 W 10
08.12.2019 04:00:00 7,0 3,0 44 24 W 10
08.12.2019 03:00:00 8,0 5,0 39 21 W 10
08.12.2019 02:00:00 10,0 8,0 39 21 W 10
08.12.2019 01:00:00 10,0 9,0 24 13 SW 10
08.12.2019 00:00:00 10,0 9,0 24 13 SSW 10
07.12.2019 23:00:00 10,0 9,0 28 15 SSW 10
07.12.2019 22:00:00 10,0 9,0 24 13 S 10
07.12.2019 21:00:00 10,0 8,0 29 16 S 10
07.12.2019 20:00:00 9,0 8,0 31 17 S 10
07.12.2019 19:00:00 9,0 7,0 22 12 S 10
07.12.2019 18:00:00 8,0 7,0 26 14 S 10
07.12.2019 17:00:00 8,0 7,0 31 17 SSE 10
07.12.2019 16:00:00 7,0 6,0 31 17 SSE 8
07.12.2019 15:00:00 7,0 6,0 28 15 SSE 6
07.12.2019 14:00:00 6,0 5,0 16 9 SSE 10
07.12.2019 13:00:00 6,0 5,0 5 3 S 10
07.12.2019 12:00:00 5,0 4,0 8 4 SSW 10
07.12.2019 11:00:00 4,0 3,0 4 2 - 10
07.12.2019 10:00:00 4,0 2,0 5 3 W 10
07.12.2019 09:00:00 3,0 2,0 5 3 WSW 10
07.12.2019 08:00:00 4,0 2,0 5 3 WSW 10
07.12.2019 07:00:00 4,0 2,0 11 6 W 10
07.12.2019 06:00:00 4,0 2,0 8 4 WSW 10
07.12.2019 05:00:00 4,0 3,0 18 10 W 10
07.12.2019 04:00:00 3,0 2,0 11 6 W 10
07.12.2019 03:00:00 4,0 2,0 13 7 W 10
07.12.2019 02:00:00 4,0 3,0 13 7 W 10
07.12.2019 01:00:00 4,0 3,0 15 8 WNW 10
07.12.2019 00:00:00 4,0 3,0 9 5 W 10
06.12.2019 23:00:00 4,0 3,0 9 5 W 10
06.12.2019 22:00:00 4,0 3,0 11 6 WNW 10
06.12.2019 21:00:00 5,0 3,0 9 5 W 10
06.12.2019 20:00:00 5,0 4,0 16 9 NW 10
06.12.2019 19:00:00 6,0 5,0 13 7 NNW 7
06.12.2019 18:00:00 6,0 6,0 13 7 NNW 4,0
06.12.2019 17:00:00 6,0 6,0 15 8 N 7
06.12.2019 16:00:00 7,0 7,0 11 6 N 7
06.12.2019 15:00:00 7,0 7,0 8 4 N 8
06.12.2019 14:00:00 8,0 7,0 9 5 N 7
06.12.2019 13:00:00 8,0 7,0 13 7 N 5
06.12.2019 12:00:00 9,0 7,0 16 9 W 10
06.12.2019 11:00:00 8,0 7,0 11 6 W 10
06.12.2019 10:00:00 8,0 6,0 5 3 - 10
06.12.2019 09:00:00 8,0 7,0 9 5 WSW 10
06.12.2019 08:00:00 9,0 8,0 11 6 WSW 10
06.12.2019 07:00:00 9,0 8,0 8 4 SW 10
06.12.2019 06:00:00 10,0 8,0 11 6 W 10
06.12.2019 05:00:00 9,0 8,0 11 6 W 10
06.12.2019 04:00:00 9,0 8,0 13 7 SW 10
06.12.2019 03:00:00 8,0 8,0 15 8 SSW 10
06.12.2019 02:00:00 8,0 7,0 5 3 SSW 10
06.12.2019 01:00:00 7,0 7,0 8 4 SSW 7
06.12.2019 00:00:00 7,0 6,0 5 3 SW 10
05.12.2019 23:00:00 7,0 6,0 11 6 W 10
05.12.2019 22:00:00 7,0 7,0 13 7 WNW 10
05.12.2019 21:00:00 8,0 7,0 18 10 NW 10
05.12.2019 20:00:00 9,0 8,0 21 11 WNW 10
05.12.2019 19:00:00 9,0 8,0 15 8 W 10
05.12.2019 18:00:00 8,0 7,0 18 10 SSW 7
05.12.2019 17:00:00 8,0 7,0 18 10 SSW 7
05.12.2019 16:00:00 8,0 7,0 21 11 SSW 7
05.12.2019 15:00:00 8,0 7,0 24 13 S 9
05.12.2019 14:00:00 8,0 6,0 24 13 SSW 10
05.12.2019 13:00:00 9,0 5,0 26 14 SSW 10
05.12.2019 12:00:00 9,0 6,0 18 10 SW 10
05.12.2019 11:00:00 9,0 5,0 28 15 WSW 10
05.12.2019 10:00:00 9,0 5,0 28 15 WSW 10
05.12.2019 09:00:00 8,0 4,0 22 12 WSW 10

tt = temperature
td = dewpoint
ff = wind speed
dd = wind direction
vv = visibility

Next stations